Decoded Metar for LEGR (GRANADA in SPAIN) (IATA:GRX) | Meteo·Mobile Aviation Weather
aviador You're here:

LEGR Decoded Metar

GRANADA in SPAIN
Report Time2019-07-21 18:00:00
UTC Time2019-07-21 18:07:31
Flight Rules vfr VFR
Wind260° at 09 kt
W.Decomp.*RWY 27: 8.9 kt HW 1.4 kt LCW
Visibility9999 m
Phenomena:N/A
Clouds:Few 070 Hf
Expected CloudBase > 9,200 ft AGL from Temp-Dew spread
CeilingNone
Temp37°C (ISA +26)
Dew Point14°C (25% RH)
Heat Index36.4°C
AAT34.9°C
QNH1016 hPa
Density Alt4,836 ft
Elevation1,834 ft
Report Wrong Elevation
Raw Report
METAR LEGR 211800Z 26009KT 230V310 9999 FEW070 37/14 Q1016=

Extra information for LEGR:More info

Metar Taf Metar & Taf Last 4 Metars F.Rules Stats Wind Profile Meteogram Temp Stats Airport Information Weather charts Add Link Nearby VenuesMetar ALERT Operation Metar Decoded Social comments